createdAt,value
2023-03-19T00:00:27.980Z,98.09
2023-03-19T00:01:27.898Z,98.30
2023-03-19T00:02:27.956Z,97.67
2023-03-19T00:03:28.016Z,97.67
2023-03-19T00:04:27.896Z,97.67
2023-03-19T00:05:27.890Z,98.09
2023-03-19T00:06:27.855Z,98.09
2023-03-19T00:07:27.832Z,97.88
2023-03-19T00:08:27.825Z,97.67
2023-03-19T00:09:27.832Z,98.09
2023-03-19T00:10:27.857Z,97.57
2023-03-19T00:11:27.797Z,97.57
2023-03-19T00:12:27.795Z,97.36
2023-03-19T00:13:27.805Z,97.88
2023-03-19T00:14:27.755Z,97.36
2023-03-19T00:15:27.747Z,97.36
2023-03-19T00:16:27.827Z,97.16
2023-03-19T00:17:27.744Z,97.26
2023-03-19T00:18:27.710Z,97.36
2023-03-19T00:19:27.697Z,97.26
2023-03-19T00:20:27.689Z,97.26
2023-03-19T00:21:30.520Z,97.36
2023-03-19T00:22:27.762Z,97.57
2023-03-19T00:23:27.678Z,97.31
2023-03-19T00:24:27.640Z,97.52
2023-03-19T00:25:27.629Z,97.47
2023-03-19T00:26:27.650Z,97.93
2023-03-19T00:27:27.620Z,98.55
2023-03-19T00:28:27.659Z,97.72
2023-03-19T00:29:27.611Z,97.93
2023-03-19T00:30:28.486Z,98.03
2023-03-19T00:31:27.559Z,98.03
2023-03-19T00:32:27.564Z,97.88
2023-03-19T00:33:27.597Z,98.09
2023-03-19T00:34:27.601Z,97.72
2023-03-19T00:35:27.514Z,98.61
2023-03-19T00:36:27.505Z,98.50
2023-03-19T00:37:27.495Z,97.67
2023-03-19T00:38:27.498Z,97.78
2023-03-19T00:39:27.505Z,97.47
2023-03-19T00:40:27.531Z,97.62
2023-03-19T00:41:27.490Z,97.36
2023-03-19T00:42:27.444Z,97.47
2023-03-19T00:43:27.429Z,97.36
2023-03-19T00:44:27.411Z,97.16
2023-03-19T00:45:27.450Z,97.36
2023-03-19T00:46:27.561Z,97.06
2023-03-19T00:47:27.386Z,96.85
2023-03-19T00:48:27.379Z,96.95
2023-03-19T00:49:27.392Z,97.26
2023-03-19T00:50:27.375Z,96.64
2023-03-19T00:51:27.392Z,96.85
2023-03-19T00:52:27.328Z,96.64
2023-03-19T00:53:27.353Z,96.54
2023-03-19T00:54:27.319Z,96.33
2023-03-19T00:55:27.333Z,96.33
2023-03-19T00:56:27.298Z,96.44
2023-03-19T00:57:27.306Z,96.54
2023-03-19T00:58:27.265Z,96.70
2023-03-19T00:59:27.249Z,96.02
2023-03-19T01:00:27.259Z,96.54
2023-03-19T01:01:27.319Z,96.44
2023-03-19T01:02:27.230Z,96.23
2023-03-19T01:03:27.198Z,96.29
2023-03-19T01:04:27.273Z,96.44
2023-03-19T01:05:27.192Z,96.33
2023-03-19T01:06:27.185Z,96.23
2023-03-19T01:07:27.193Z,96.33
2023-03-19T01:08:27.178Z,96.33
2023-03-19T01:09:27.200Z,95.92
2023-03-19T01:10:27.122Z,96.75
2023-03-19T01:11:27.147Z,96.33
2023-03-19T01:12:27.115Z,96.23
2023-03-19T01:13:27.098Z,96.23
2023-03-19T01:14:27.091Z,96.48
2023-03-19T01:15:27.171Z,96.27
2023-03-19T01:16:27.069Z,96.69
2023-03-19T01:17:27.088Z,96.48
2023-03-19T01:18:27.032Z,96.94
2023-03-19T01:19:27.027Z,96.69
2023-03-19T01:20:27.008Z,96.79
2023-03-19T01:21:27.047Z,96.73
2023-03-19T01:22:27.014Z,97.00
2023-03-19T01:23:26.996Z,97.00
2023-03-19T01:24:26.995Z,96.83
2023-03-19T01:25:26.970Z,96.94
2023-03-19T01:26:26.940Z,96.89
2023-03-19T01:27:26.989Z,97.25
2023-03-19T01:28:26.918Z,96.69
2023-03-19T01:29:26.936Z,96.52
2023-03-19T01:30:26.904Z,96.31
2023-03-19T01:31:26.917Z,96.52
2023-03-19T01:32:26.872Z,96.98
2023-03-19T01:33:26.894Z,96.98
2023-03-19T01:34:26.878Z,97.39
2023-03-19T01:35:26.845Z,97.39
2023-03-19T01:36:26.836Z,97.50
2023-03-19T01:37:26.809Z,97.60
2023-03-19T01:38:26.821Z,97.50
2023-03-19T01:39:26.830Z,97.39
2023-03-19T01:40:26.793Z,97.39
2023-03-19T01:41:26.805Z,97.39
2023-03-19T01:42:26.779Z,97.75
2023-03-19T01:43:26.741Z,97.50
2023-03-19T01:44:26.730Z,97.50
2023-03-19T01:45:26.747Z,97.60
2023-03-19T01:46:26.774Z,98.02
2023-03-19T01:47:26.707Z,98.22
2023-03-19T01:48:26.700Z,98.02
2023-03-19T01:49:26.695Z,97.50
2023-03-19T01:50:26.689Z,97.39
2023-03-19T01:51:26.700Z,97.39
2023-03-19T01:52:26.647Z,97.50
2023-03-19T01:53:26.657Z,97.91
2023-03-19T01:54:26.617Z,97.71
2023-03-19T01:55:26.606Z,97.60
2023-03-19T01:56:26.599Z,97.71
2023-03-19T01:57:26.649Z,97.50
2023-03-19T01:58:26.622Z,97.29
2023-03-19T01:59:26.560Z,98.02
2023-03-19T02:00:26.551Z,98.07
2023-03-19T02:01:26.659Z,97.86
2023-03-19T02:02:26.534Z,97.75
2023-03-19T02:03:26.546Z,97.55
2023-03-19T02:04:26.643Z,97.34
2023-03-19T02:05:26.511Z,97.65
2023-03-19T02:06:26.483Z,97.65
2023-03-19T02:07:26.508Z,97.65
2023-03-19T02:08:26.462Z,97.96
2023-03-19T02:09:26.499Z,97.75
2023-03-19T02:10:26.463Z,97.49
2023-03-19T02:11:26.428Z,97.69
2023-03-19T02:12:26.417Z,98.11
2023-03-19T02:13:26.439Z,98.73
2023-03-19T02:14:26.428Z,98.32
2023-03-19T02:15:26.432Z,98.73
2023-03-19T02:16:26.441Z,99.66
2023-03-19T02:17:26.360Z,99.46
2023-03-19T02:18:26.376Z,99.99
2023-03-19T02:19:26.338Z,99.99
2023-03-19T02:20:26.363Z,99.99
2023-03-19T02:21:26.371Z,99.99
2023-03-19T02:22:26.943Z,99.99
2023-03-19T02:23:26.340Z,99.92
2023-03-19T02:24:26.277Z,99.99
2023-03-19T02:25:26.268Z,99.99
2023-03-19T02:26:26.265Z,99.92
2023-03-19T02:27:26.304Z,99.77
2023-03-19T02:28:26.246Z,99.99
2023-03-19T02:29:26.246Z,99.99
2023-03-19T02:30:26.214Z,99.98
2023-03-19T02:31:26.269Z,99.99
2023-03-19T02:32:26.226Z,99.46
2023-03-19T02:33:26.222Z,99.35
2023-03-19T02:34:26.164Z,99.72
2023-03-19T02:35:26.156Z,99.56
2023-03-19T02:36:26.152Z,99.66
2023-03-19T02:37:26.192Z,99.66
2023-03-19T02:38:26.142Z,99.87
2023-03-19T02:39:26.195Z,99.41
2023-03-19T02:40:26.099Z,99.25
2023-03-19T02:41:26.088Z,99.00
2023-03-19T02:42:26.088Z,98.83
2023-03-19T02:43:26.077Z,98.94
2023-03-19T02:44:26.085Z,98.32
2023-03-19T02:45:26.115Z,98.73
2023-03-19T02:46:26.065Z,98.69
2023-03-19T02:47:26.031Z,98.63
2023-03-19T02:48:26.007Z,98.73
2023-03-19T02:49:26.007Z,99.15
2023-03-19T02:50:26.019Z,99.66
2023-03-19T02:51:26.066Z,99.46
2023-03-19T02:52:25.961Z,99.25
2023-03-19T02:53:25.989Z,99.66
2023-03-19T02:54:25.946Z,99.56
2023-03-19T02:55:25.943Z,99.46
2023-03-19T02:56:25.945Z,99.77
2023-03-19T02:57:25.968Z,99.99
2023-03-19T02:58:25.897Z,99.99
2023-03-19T02:59:25.882Z,99.99
2023-03-19T03:00:26.112Z,99.77
2023-03-19T03:01:25.894Z,99.99
2023-03-19T03:02:25.995Z,99.87
2023-03-19T03:03:25.913Z,99.99
2023-03-19T03:04:25.852Z,99.99
2023-03-19T03:05:25.824Z,99.77
2023-03-19T03:06:25.817Z,99.56
2023-03-19T03:07:25.825Z,99.35
2023-03-19T03:08:25.787Z,99.56
2023-03-19T03:09:25.867Z,99.56
2023-03-19T03:10:25.781Z,99.66
2023-03-19T03:11:25.762Z,99.35
2023-03-19T03:12:25.768Z,99.25
2023-03-19T03:13:25.730Z,99.15
2023-03-19T03:14:25.751Z,99.56
2023-03-19T03:15:25.751Z,99.56
2023-03-19T03:16:25.804Z,99.82
2023-03-19T03:17:25.702Z,99.40
2023-03-19T03:18:25.674Z,99.09
2023-03-19T03:19:25.665Z,99.82
2023-03-19T03:20:25.676Z,99.92
2023-03-19T03:21:25.697Z,99.92
2023-03-19T03:22:25.637Z,99.99
2023-03-19T03:23:25.631Z,99.99
2023-03-19T03:24:25.607Z,99.99
2023-03-19T03:25:25.636Z,99.99
2023-03-19T03:26:25.583Z,99.99
2023-03-19T03:27:25.631Z,99.71
2023-03-19T03:28:25.574Z,99.51
2023-03-19T03:29:25.587Z,99.40
2023-03-19T03:30:25.538Z,99.19
2023-03-19T03:31:25.574Z,99.40
2023-03-19T03:32:25.525Z,99.40
2023-03-19T03:33:25.541Z,99.71
2023-03-19T03:34:25.506Z,99.71
2023-03-19T03:35:25.582Z,99.46
2023-03-19T03:36:25.471Z,99.15
2023-03-19T03:37:25.461Z,99.66
2023-03-19T03:38:25.473Z,99.56
2023-03-19T03:39:25.495Z,99.66
2023-03-19T03:40:25.443Z,99.56
2023-03-19T03:41:25.435Z,99.56
2023-03-19T03:42:25.449Z,99.35
2023-03-19T03:43:25.397Z,99.35
2023-03-19T03:44:25.383Z,99.15
2023-03-19T03:45:25.416Z,99.46
2023-03-19T03:46:25.361Z,99.25
2023-03-19T03:47:25.396Z,99.15
2023-03-19T03:48:25.360Z,99.35
2023-03-19T03:49:25.351Z,99.25
2023-03-19T03:50:25.319Z,99.25
2023-03-19T03:51:25.337Z,99.66
2023-03-19T03:52:25.381Z,99.35
2023-03-19T03:53:25.282Z,99.04
2023-03-19T03:54:25.269Z,99.25
2023-03-19T03:55:25.280Z,99.35
2023-03-19T03:56:25.274Z,99.35
2023-03-19T03:57:25.284Z,99.66
2023-03-19T03:58:25.267Z,99.51
2023-03-19T03:59:25.220Z,99.61
2023-03-19T04:00:25.217Z,99.99
2023-03-19T04:01:25.194Z,99.99
2023-03-19T04:02:25.295Z,99.99
2023-03-19T04:03:25.210Z,99.99
2023-03-19T04:04:25.241Z,99.99
2023-03-19T04:05:25.146Z,99.99
2023-03-19T04:06:25.133Z,99.99
2023-03-19T04:07:25.134Z,99.99
2023-03-19T04:08:25.147Z,99.99
2023-03-19T04:09:25.135Z,99.99
2023-03-19T04:10:25.172Z,99.99
2023-03-19T04:11:25.081Z,99.99
2023-03-19T04:12:25.070Z,99.99
2023-03-19T04:13:25.089Z,99.99
2023-03-19T04:14:25.042Z,99.99
2023-03-19T04:15:25.069Z,99.99
2023-03-19T04:16:25.131Z,99.99
2023-03-19T04:17:25.020Z,99.99
2023-03-19T04:18:25.041Z,99.99
2023-03-19T04:19:25.000Z,99.99
2023-03-19T04:20:25.011Z,99.99
2023-03-19T04:21:24.968Z,99.99
2023-03-19T04:22:25.014Z,99.99
2023-03-19T04:23:24.944Z,99.99
2023-03-19T04:24:24.940Z,99.99
2023-03-19T04:25:24.946Z,99.99
2023-03-19T04:26:24.912Z,99.99
2023-03-19T04:27:24.921Z,99.99
2023-03-19T04:28:24.921Z,99.99
2023-03-19T04:29:24.923Z,99.99
2023-03-19T04:30:24.880Z,99.99
2023-03-19T04:31:24.862Z,99.99
2023-03-19T04:32:24.840Z,99.99
2023-03-19T04:33:24.854Z,99.99
2023-03-19T04:34:24.875Z,99.99
2023-03-19T04:35:24.992Z,99.99
2023-03-19T04:36:24.816Z,99.99
2023-03-19T04:37:24.930Z,99.99
2023-03-19T04:38:24.779Z,99.99
2023-03-19T04:39:24.765Z,99.99
2023-03-19T04:40:24.836Z,99.99
2023-03-19T04:41:24.781Z,99.82
2023-03-19T04:42:24.760Z,99.99
2023-03-19T04:43:24.718Z,99.31
2023-03-19T04:44:24.704Z,99.21
2023-03-19T04:45:24.720Z,99.10
2023-03-19T04:46:24.796Z,99.26
2023-03-19T04:47:24.713Z,99.47
2023-03-19T04:48:24.662Z,99.10
2023-03-19T04:49:24.691Z,99.16
2023-03-19T04:50:24.640Z,99.10
2023-03-19T04:51:24.638Z,99.00
2023-03-19T04:52:24.669Z,99.47
2023-03-19T04:53:24.636Z,99.05
2023-03-19T04:54:24.623Z,99.68
2023-03-19T04:55:24.582Z,99.37
2023-03-19T04:56:24.595Z,99.16
2023-03-19T04:57:24.564Z,99.37
2023-03-19T04:58:24.614Z,98.85
2023-03-19T04:59:24.568Z,99.16
2023-03-19T05:00:33.700Z,98.95
2023-03-19T05:01:24.554Z,98.95
2023-03-19T05:02:24.502Z,98.95
2023-03-19T05:03:24.529Z,99.16
2023-03-19T05:04:24.491Z,99.47
2023-03-19T05:05:24.519Z,99.47
2023-03-19T05:06:24.457Z,98.95
2023-03-19T05:07:24.451Z,98.74
2023-03-19T05:08:24.460Z,98.74
2023-03-19T05:09:24.431Z,98.33
2023-03-19T05:10:24.429Z,99.78
2023-03-19T05:11:24.440Z,99.47
2023-03-19T05:12:24.420Z,99.57
2023-03-19T05:13:24.410Z,99.47
2023-03-19T05:14:24.368Z,99.16
2023-03-19T05:15:24.406Z,99.26
2023-03-19T05:16:24.415Z,99.57
2023-03-19T05:17:24.370Z,99.72
2023-03-19T05:18:24.321Z,99.78
2023-03-19T05:19:24.319Z,99.99
2023-03-19T05:20:24.344Z,99.99
2023-03-19T05:21:24.300Z,99.99
2023-03-19T05:22:24.276Z,99.99
2023-03-19T05:23:24.263Z,99.99
2023-03-19T05:24:24.254Z,99.99
2023-03-19T05:25:24.272Z,99.99
2023-03-19T05:26:24.298Z,99.99
2023-03-19T05:27:24.240Z,99.52
2023-03-19T05:28:24.214Z,99.26
2023-03-19T05:29:24.195Z,99.05
2023-03-19T05:30:24.190Z,98.91
2023-03-19T05:31:24.219Z,99.11
2023-03-19T05:32:24.238Z,99.22
2023-03-19T05:33:24.187Z,99.05
2023-03-19T05:34:24.153Z,99.16
2023-03-19T05:35:24.148Z,99.32
2023-03-19T05:36:24.134Z,99.63
2023-03-19T05:37:24.110Z,98.80
2023-03-19T05:38:24.133Z,98.28
2023-03-19T05:39:24.124Z,98.91
2023-03-19T05:40:24.072Z,99.01
2023-03-19T05:41:24.062Z,98.60
2023-03-19T05:42:24.069Z,98.60
2023-03-19T05:43:24.052Z,98.03
2023-03-19T05:44:24.071Z,98.55
2023-03-19T05:45:24.063Z,98.39
2023-03-19T05:46:24.041Z,98.34
2023-03-19T05:47:24.008Z,98.55
2023-03-19T05:48:24.005Z,98.65
2023-03-19T05:49:23.997Z,98.34
2023-03-19T05:50:23.999Z,98.24
2023-03-19T05:51:24.008Z,98.55
2023-03-19T05:52:23.938Z,98.44
2023-03-19T05:53:23.937Z,98.86
2023-03-19T05:54:23.920Z,98.44
2023-03-19T05:55:23.927Z,98.34
2023-03-19T05:56:23.930Z,98.55
2023-03-19T05:57:23.887Z,98.55
2023-03-19T05:58:23.903Z,98.44
2023-03-19T05:59:23.883Z,98.13
2023-03-19T06:00:23.858Z,98.86
2023-03-19T06:01:23.911Z,98.86
2023-03-19T06:02:23.917Z,99.17
2023-03-19T06:03:23.836Z,99.17
2023-03-19T06:04:23.893Z,99.58
2023-03-19T06:05:23.794Z,99.69
2023-03-19T06:06:23.794Z,98.96
2023-03-19T06:07:23.804Z,98.82
2023-03-19T06:08:23.832Z,99.33
2023-03-19T06:09:23.771Z,99.07
2023-03-19T06:10:23.746Z,99.74
2023-03-19T06:11:23.729Z,99.54
2023-03-19T06:12:23.770Z,99.99
2023-03-19T06:13:23.735Z,99.64
2023-03-19T06:14:23.700Z,99.95
2023-03-19T06:15:23.677Z,99.54
2023-03-19T06:16:23.757Z,99.95
2023-03-19T06:17:23.674Z,99.85
2023-03-19T06:18:23.659Z,99.99
2023-03-19T06:19:23.671Z,99.54
2023-03-19T06:20:23.644Z,99.33
2023-03-19T06:21:23.614Z,99.29
2023-03-19T06:22:23.605Z,99.39
2023-03-19T06:23:23.594Z,99.43
2023-03-19T06:24:23.615Z,99.49
2023-03-19T06:25:23.586Z,99.29
2023-03-19T06:26:23.650Z,99.08
2023-03-19T06:27:23.556Z,98.83
2023-03-19T06:28:23.543Z,98.56
2023-03-19T06:29:23.533Z,98.52
2023-03-19T06:30:23.510Z,98.62
2023-03-19T06:31:23.543Z,98.52
2023-03-19T06:32:23.585Z,98.66
2023-03-19T06:33:23.479Z,98.72
2023-03-19T06:34:23.482Z,98.52
2023-03-19T06:35:23.552Z,97.89
2023-03-19T06:36:23.514Z,98.31
2023-03-19T06:37:23.467Z,98.93
2023-03-19T06:38:23.449Z,98.93
2023-03-19T06:39:23.415Z,99.55
2023-03-19T06:40:23.432Z,99.24
2023-03-19T06:41:23.409Z,98.88
2023-03-19T06:42:23.466Z,99.09
2023-03-19T06:43:23.403Z,99.99
2023-03-19T06:44:23.447Z,99.82
2023-03-19T06:45:23.361Z,99.71
2023-03-19T06:46:23.460Z,99.71
2023-03-19T06:47:23.320Z,99.82
2023-03-19T06:48:23.329Z,99.77
2023-03-19T06:49:23.336Z,99.99
2023-03-19T06:50:23.329Z,99.99
2023-03-19T06:51:23.330Z,99.99
2023-03-19T06:52:23.286Z,99.99
2023-03-19T06:53:23.258Z,99.99
2023-03-19T06:54:23.250Z,99.99
2023-03-19T06:55:23.243Z,99.99
2023-03-19T06:56:23.294Z,99.99
2023-03-19T06:57:23.236Z,99.99
2023-03-19T06:58:23.205Z,99.99
2023-03-19T06:59:23.190Z,99.99
2023-03-19T07:00:23.180Z,99.99
2023-03-19T07:01:23.520Z,99.99
2023-03-19T07:02:23.180Z,99.99
2023-03-19T07:03:23.205Z,99.99
2023-03-19T07:04:23.170Z,99.99
2023-03-19T07:05:23.122Z,99.99
2023-03-19T07:06:23.125Z,99.99
2023-03-19T07:07:23.133Z,99.99
2023-03-19T07:08:23.133Z,99.99
2023-03-19T07:09:23.081Z,99.99
2023-03-19T07:10:23.107Z,99.99
2023-03-19T07:11:23.054Z,99.99
2023-03-19T07:12:23.071Z,99.99
2023-03-19T07:13:23.043Z,99.99
2023-03-19T07:14:23.052Z,99.99
2023-03-19T07:15:23.094Z,99.99
2023-03-19T07:16:23.007Z,99.99
2023-03-19T07:17:22.994Z,99.99
2023-03-19T07:18:22.994Z,99.99
2023-03-19T07:19:22.995Z,99.99
2023-03-19T07:20:22.973Z,99.99
2023-03-19T07:21:22.975Z,99.99
2023-03-19T07:22:22.942Z,99.99
2023-03-19T07:23:22.923Z,99.99
2023-03-19T07:24:22.958Z,99.99
2023-03-19T07:25:22.938Z,99.99
2023-03-19T07:26:22.889Z,99.99
2023-03-19T07:27:22.883Z,99.99
2023-03-19T07:28:22.896Z,99.99
2023-03-19T07:29:22.865Z,99.99
2023-03-19T07:30:22.847Z,99.99
2023-03-19T07:31:22.896Z,99.99
2023-03-19T07:32:22.820Z,99.99
2023-03-19T07:33:22.876Z,99.99
2023-03-19T07:34:22.798Z,99.99
2023-03-19T07:35:22.903Z,99.99
2023-03-19T07:36:22.812Z,99.99
2023-03-19T07:37:22.782Z,99.99
2023-03-19T07:38:22.753Z,99.87
2023-03-19T07:39:22.757Z,99.31
2023-03-19T07:40:22.766Z,99.62
2023-03-19T07:41:22.737Z,99.62
2023-03-19T07:42:22.727Z,99.21
2023-03-19T07:43:22.696Z,98.79
2023-03-19T07:44:22.721Z,99.10
2023-03-19T07:45:22.731Z,97.62
2023-03-19T07:46:22.713Z,96.90
2023-03-19T07:47:28.967Z,97.41
2023-03-19T07:48:23.647Z,97.52
2023-03-19T07:49:22.622Z,96.95
2023-03-19T07:50:22.613Z,97.27
2023-03-19T07:51:22.648Z,97.37
2023-03-19T07:52:22.594Z,97.06
2023-03-19T07:53:22.598Z,95.57
2023-03-19T07:54:22.600Z,94.90
2023-03-19T07:55:22.605Z,94.76
2023-03-19T07:56:22.566Z,94.45
2023-03-19T07:57:22.573Z,94.40
2023-03-19T07:58:22.588Z,94.40
2023-03-19T07:59:22.517Z,92.76
2023-03-19T08:00:22.513Z,92.72
2023-03-19T08:01:22.492Z,92.93
2023-03-19T08:02:23.663Z,92.51
2023-03-19T08:03:22.508Z,92.06
2023-03-19T08:04:22.649Z,91.69
2023-03-19T08:05:22.475Z,91.14
2023-03-19T08:06:22.475Z,91.65
2023-03-19T08:07:22.424Z,90.93
2023-03-19T08:08:22.410Z,89.66
2023-03-19T08:09:22.399Z,90.07
2023-03-19T08:10:22.438Z,90.89
2023-03-19T08:11:22.371Z,90.13
2023-03-19T08:12:22.418Z,89.97
2023-03-19T08:13:22.352Z,89.42
2023-03-19T08:14:22.394Z,88.49
2023-03-19T08:15:22.338Z,89.00
2023-03-19T08:16:22.365Z,88.96
2023-03-19T08:17:22.307Z,88.90
2023-03-19T08:18:22.359Z,88.45
2023-03-19T08:19:22.287Z,88.65
2023-03-19T08:20:22.292Z,88.65
2023-03-19T08:21:22.274Z,88.71
2023-03-19T08:22:22.283Z,88.51
2023-03-19T08:23:22.239Z,87.79
2023-03-19T08:24:22.251Z,88.78
2023-03-19T08:25:22.223Z,88.88
2023-03-19T08:26:22.207Z,88.17
2023-03-19T08:27:22.228Z,87.85
2023-03-19T08:28:22.246Z,87.76
2023-03-19T08:29:22.177Z,87.76
2023-03-19T08:30:22.456Z,87.82
2023-03-19T08:31:22.186Z,86.90
2023-03-19T08:32:22.145Z,86.43
2023-03-19T08:33:22.141Z,86.43
2023-03-19T08:34:22.147Z,85.81
2023-03-19T08:35:22.136Z,87.14
2023-03-19T08:36:22.094Z,88.10
2023-03-19T08:37:22.080Z,87.24
2023-03-19T08:38:22.080Z,87.18
2023-03-19T08:39:22.068Z,87.90
2023-03-19T08:40:22.118Z,87.18
2023-03-19T08:41:22.068Z,88.10
2023-03-19T08:42:22.154Z,87.70
2023-03-19T08:43:22.209Z,88.31
2023-03-19T08:44:22.047Z,87.65
2023-03-19T08:45:22.022Z,88.06
2023-03-19T08:46:22.094Z,88.17
2023-03-19T08:47:21.981Z,88.31
2023-03-19T08:48:21.985Z,88.62
2023-03-19T08:49:21.954Z,87.96
2023-03-19T08:50:21.977Z,88.57
2023-03-19T08:51:21.920Z,88.57
2023-03-19T08:52:21.945Z,88.26
2023-03-19T08:53:21.907Z,88.17
2023-03-19T08:54:23.052Z,88.37
2023-03-19T08:55:21.891Z,88.37
2023-03-19T08:56:21.901Z,88.17
2023-03-19T08:57:21.855Z,87.96
2023-03-19T08:58:21.844Z,87.85
2023-03-19T08:59:21.865Z,87.65
2023-03-19T09:00:21.852Z,87.65
2023-03-19T09:01:21.889Z,87.71
2023-03-19T09:02:21.814Z,87.04
2023-03-19T09:03:21.798Z,87.04
2023-03-19T09:04:21.811Z,86.73
2023-03-19T09:05:21.798Z,88.12
2023-03-19T09:06:21.776Z,88.33
2023-03-19T09:07:21.758Z,88.12
2023-03-19T09:08:21.778Z,87.51
2023-03-19T09:09:21.719Z,87.82
2023-03-19T09:10:21.710Z,88.39
2023-03-19T09:11:21.715Z,87.88
2023-03-19T09:12:21.705Z,87.88
2023-03-19T09:13:21.725Z,88.08
2023-03-19T09:14:21.665Z,88.18
2023-03-19T09:15:21.694Z,88.59
2023-03-19T09:16:21.833Z,88.39
2023-03-19T09:17:21.644Z,88.14
2023-03-19T09:18:21.629Z,87.67
2023-03-19T09:19:21.605Z,87.94
2023-03-19T09:20:21.619Z,87.94
2023-03-19T09:21:21.582Z,88.45
2023-03-19T09:22:21.594Z,87.94
2023-03-19T09:23:21.579Z,87.84
2023-03-19T09:24:21.585Z,86.91
2023-03-19T09:25:21.541Z,87.63
2023-03-19T09:26:21.534Z,86.82
2023-03-19T09:27:21.521Z,86.82
2023-03-19T09:28:21.509Z,86.77
2023-03-19T09:29:21.512Z,86.67
2023-03-19T09:30:21.520Z,85.55
2023-03-19T09:31:21.515Z,86.77
2023-03-19T09:32:21.498Z,86.98
2023-03-19T09:33:21.475Z,86.36
2023-03-19T09:34:21.443Z,86.36
2023-03-19T09:35:21.463Z,86.43
2023-03-19T09:36:21.417Z,86.02
2023-03-19T09:37:21.408Z,85.41
2023-03-19T09:38:21.431Z,85.41
2023-03-19T09:39:21.408Z,85.92
2023-03-19T09:40:21.505Z,85.16
2023-03-19T09:41:21.384Z,85.51
2023-03-19T09:42:21.355Z,84.80
2023-03-19T09:43:21.362Z,85.41
2023-03-19T09:44:21.352Z,84.55
2023-03-19T09:45:21.319Z,84.18
2023-03-19T09:46:22.871Z,83.84
2023-03-19T09:47:21.312Z,84.04
2023-03-19T09:48:21.325Z,84.59
2023-03-19T09:49:21.278Z,84.75
2023-03-19T09:50:21.263Z,84.66
2023-03-19T09:51:21.254Z,85.77
2023-03-19T09:52:21.253Z,83.57
2023-03-19T09:53:21.361Z,84.28
2023-03-19T09:54:21.224Z,84.69
2023-03-19T09:55:21.216Z,84.69
2023-03-19T09:56:21.194Z,85.82
2023-03-19T09:57:21.218Z,84.80
2023-03-19T09:58:21.190Z,85.30
2023-03-19T09:59:21.161Z,85.57
2023-03-19T10:00:21.226Z,85.27
2023-03-19T10:01:21.202Z,85.57
2023-03-19T10:02:21.164Z,84.90
2023-03-19T10:03:21.135Z,85.71
2023-03-19T10:04:21.308Z,85.41
2023-03-19T10:05:21.135Z,85.30
2023-03-19T10:06:21.082Z,85.82
2023-03-19T10:07:21.085Z,85.82
2023-03-19T10:08:21.081Z,85.71
2023-03-19T10:09:21.064Z,84.69
2023-03-19T10:10:21.163Z,84.59
2023-03-19T10:11:21.047Z,85.51
2023-03-19T10:12:21.044Z,85.61
2023-03-19T10:13:21.007Z,84.90
2023-03-19T10:14:21.034Z,85.61
2023-03-19T10:15:21.017Z,84.28
2023-03-19T10:16:21.088Z,84.28
2023-03-19T10:17:20.969Z,85.61
2023-03-19T10:18:20.996Z,85.30
2023-03-19T10:19:22.228Z,85.71
2023-03-19T10:20:20.957Z,85.00
2023-03-19T10:21:20.952Z,85.61
2023-03-19T10:22:20.902Z,85.96
2023-03-19T10:23:20.895Z,85.55
2023-03-19T10:24:20.905Z,85.30
2023-03-19T10:25:20.879Z,85.65
2023-03-19T10:26:20.880Z,86.26
2023-03-19T10:27:20.884Z,86.26
2023-03-19T10:28:20.840Z,86.36
2023-03-19T10:29:20.844Z,85.35
2023-03-19T10:30:20.823Z,86.98
2023-03-19T10:31:20.863Z,87.70
2023-03-19T10:32:20.830Z,87.59
2023-03-19T10:33:20.783Z,88.10
2023-03-19T10:34:20.796Z,89.53
2023-03-19T10:35:20.770Z,88.51
2023-03-19T10:36:20.842Z,88.04
2023-03-19T10:37:20.772Z,88.10
2023-03-19T10:38:20.726Z,87.73
2023-03-19T10:39:20.757Z,88.55
2023-03-19T10:40:20.706Z,88.18
2023-03-19T10:41:20.708Z,89.58
2023-03-19T10:42:20.697Z,89.61
2023-03-19T10:43:20.694Z,89.72
2023-03-19T10:44:20.706Z,89.82
2023-03-19T10:45:20.682Z,90.94
2023-03-19T10:46:20.660Z,90.64
2023-03-19T10:47:20.657Z,89.51
2023-03-19T10:48:20.636Z,89.41
2023-03-19T10:49:20.642Z,89.92
2023-03-19T10:50:20.593Z,89.41
2023-03-19T10:51:20.587Z,89.72
2023-03-19T10:52:20.619Z,89.61
2023-03-19T10:53:20.564Z,89.72
2023-03-19T10:54:20.572Z,89.11
2023-03-19T10:55:20.542Z,88.90
2023-03-19T10:56:20.548Z,88.59
2023-03-19T10:57:20.546Z,89.20
2023-03-19T10:58:20.517Z,89.20
2023-03-19T10:59:20.504Z,89.20
2023-03-19T11:00:20.498Z,88.29
2023-03-19T11:01:20.516Z,89.20
2023-03-19T11:02:20.480Z,88.90
2023-03-19T11:03:20.449Z,88.59
2023-03-19T11:04:20.473Z,88.59
2023-03-19T11:05:20.438Z,88.79
2023-03-19T11:06:20.458Z,89.61
2023-03-19T11:07:20.402Z,88.49
2023-03-19T11:08:35.042Z,88.04
2023-03-19T11:09:21.418Z,89.26
2023-03-19T11:10:20.373Z,88.55
2023-03-19T11:11:20.378Z,87.63
2023-03-19T11:12:20.384Z,88.76
2023-03-19T11:13:20.345Z,88.14
2023-03-19T11:14:20.325Z,88.85
2023-03-19T11:15:20.342Z,88.45
2023-03-19T11:16:20.334Z,89.98
2023-03-19T11:17:20.308Z,89.32
2023-03-19T11:18:20.284Z,89.17
2023-03-19T11:19:20.320Z,88.20
2023-03-19T11:20:20.261Z,85.75
2023-03-19T11:21:20.251Z,85.65
2023-03-19T11:22:21.044Z,85.75
2023-03-19T11:23:20.229Z,86.26
2023-03-19T11:24:20.225Z,86.88
2023-03-19T11:25:20.245Z,86.94
2023-03-19T11:26:20.194Z,85.92
2023-03-19T11:27:20.180Z,85.51
2023-03-19T11:28:22.110Z,85.71
2023-03-19T11:29:20.192Z,84.59
2023-03-19T11:30:20.145Z,85.37
2023-03-19T11:31:20.169Z,85.68
2023-03-19T11:32:22.078Z,85.37
2023-03-19T11:33:20.190Z,85.77
2023-03-19T11:34:20.119Z,82.71
2023-03-19T11:35:20.096Z,82.71
2023-03-19T11:36:20.124Z,82.00
2023-03-19T11:37:20.099Z,83.29
2023-03-19T11:38:20.054Z,82.17
2023-03-19T11:39:20.056Z,82.57
2023-03-19T11:40:20.126Z,81.96
2023-03-19T11:41:20.021Z,81.76
2023-03-19T11:42:20.013Z,81.45
2023-03-19T11:43:20.008Z,82.17
2023-03-19T11:44:19.991Z,81.15
2023-03-19T11:45:20.001Z,79.99
2023-03-19T11:46:20.005Z,78.91
2023-03-19T11:47:27.235Z,78.70
2023-03-19T11:48:20.972Z,78.39
2023-03-19T11:49:19.948Z,78.50
2023-03-19T11:50:19.952Z,78.19
2023-03-19T11:51:19.938Z,78.05
2023-03-19T11:52:19.900Z,78.05
2023-03-19T11:53:19.909Z,77.75
2023-03-19T11:54:19.886Z,77.55
2023-03-19T11:55:19.862Z,75.92
2023-03-19T11:56:19.885Z,76.42
2023-03-19T11:57:19.877Z,77.51
2023-03-19T11:58:19.846Z,76.18
2023-03-19T11:59:19.856Z,76.69
2023-03-19T12:00:19.845Z,75.16
2023-03-19T12:01:19.801Z,74.96
2023-03-19T12:02:19.823Z,74.45
2023-03-19T12:03:19.842Z,75.57
2023-03-19T12:04:19.763Z,75.78
2023-03-19T12:05:19.751Z,75.37
2023-03-19T12:06:19.779Z,75.47
2023-03-19T12:07:19.769Z,76.04
2023-03-19T12:08:19.874Z,75.88
2023-03-19T12:09:19.708Z,75.88
2023-03-19T12:10:19.730Z,75.88
2023-03-19T12:11:19.731Z,77.40
2023-03-19T12:12:19.694Z,77.10
2023-03-19T12:13:19.687Z,75.88
2023-03-19T12:14:19.649Z,75.67
2023-03-19T12:15:19.639Z,75.47
2023-03-19T12:16:19.706Z,74.86
2023-03-19T12:17:19.644Z,74.76
2023-03-19T12:18:19.621Z,74.86
2023-03-19T12:19:19.614Z,75.16
2023-03-19T12:20:19.583Z,75.16
2023-03-19T12:21:19.587Z,75.47
2023-03-19T12:22:19.597Z,75.98
2023-03-19T12:23:19.551Z,75.88
2023-03-19T12:24:19.564Z,75.98
2023-03-19T12:25:19.526Z,75.27
2023-03-19T12:28:17.255Z,75.43
2023-03-19T12:29:17.197Z,75.98
2023-03-19T12:30:26.276Z,75.23
2023-03-19T12:31:17.307Z,74.93
2023-03-19T12:32:17.174Z,74.72
2023-03-19T12:33:17.154Z,75.02
2023-03-19T12:34:27.021Z,74.93
2023-03-19T12:35:17.133Z,75.16
2023-03-19T12:36:17.177Z,75.13
2023-03-19T12:37:17.140Z,74.82
2023-03-19T12:38:17.135Z,75.13
2023-03-19T12:39:17.094Z,74.82
2023-03-19T12:40:17.192Z,74.93
2023-03-19T12:41:17.062Z,75.13
2023-03-19T12:42:17.073Z,75.23
2023-03-19T12:43:17.041Z,74.41
2023-03-19T12:44:17.078Z,75.33
2023-03-19T12:45:17.048Z,75.33
2023-03-19T12:46:25.635Z,74.01
2023-03-19T12:47:17.017Z,74.52
2023-03-19T12:48:17.011Z,75.23
2023-03-19T12:49:17.029Z,75.43
2023-03-19T12:50:16.989Z,74.32
2023-03-19T12:51:16.996Z,76.15
2023-03-19T12:52:17.039Z,75.13
2023-03-19T12:53:16.964Z,75.74
2023-03-19T12:54:16.965Z,75.74